sensor_id;sensor_type;location;lat;lon;timestamp;pressure;altitude;pressure_sealevel;temperature;humidity
26697;BME280;14312;52.614;13.496;2023-08-21T00:01:14;101519.34;;;24.10;55.19
26697;BME280;14312;52.614;13.496;2023-08-21T00:03:59;101522.19;;;24.05;55.39
26697;BME280;14312;52.614;13.496;2023-08-21T00:06:45;101518.00;;;23.99;55.74
26697;BME280;14312;52.614;13.496;2023-08-21T00:09:31;101521.66;;;23.94;55.33
26697;BME280;14312;52.614;13.496;2023-08-21T00:12:17;101517.09;;;23.90;55.66
26697;BME280;14312;52.614;13.496;2023-08-21T00:15:04;101510.69;;;23.86;55.72
26697;BME280;14312;52.614;13.496;2023-08-21T00:17:49;101516.22;;;23.80;55.51
26697;BME280;14312;52.614;13.496;2023-08-21T00:20:35;101520.69;;;23.76;55.83
26697;BME280;14312;52.614;13.496;2023-08-21T00:23:21;101512.63;;;23.71;55.97
26697;BME280;14312;52.614;13.496;2023-08-21T00:26:07;101516.25;;;23.67;55.88
26697;BME280;14312;52.614;13.496;2023-08-21T00:28:53;101518.81;;;23.63;56.00
26697;BME280;14312;52.614;13.496;2023-08-21T00:31:39;101515.88;;;23.60;56.23
26697;BME280;14312;52.614;13.496;2023-08-21T00:34:25;101513.28;;;23.55;56.42
26697;BME280;14312;52.614;13.496;2023-08-21T00:37:11;101526.38;;;23.53;56.61
26697;BME280;14312;52.614;13.496;2023-08-21T00:39:57;101519.13;;;23.48;56.45
26697;BME280;14312;52.614;13.496;2023-08-21T00:42:43;101520.50;;;23.46;56.41
26697;BME280;14312;52.614;13.496;2023-08-21T00:45:28;101519.81;;;23.40;56.66
26697;BME280;14312;52.614;13.496;2023-08-21T00:48:14;101526.34;;;23.39;56.97
26697;BME280;14312;52.614;13.496;2023-08-21T00:51:01;101519.13;;;23.34;56.83
26697;BME280;14312;52.614;13.496;2023-08-21T00:53:47;101529.19;;;23.34;56.93
26697;BME280;14312;52.614;13.496;2023-08-21T00:56:33;101520.50;;;23.32;57.04
26697;BME280;14312;52.614;13.496;2023-08-21T00:59:20;101522.75;;;23.30;57.29
26697;BME280;14312;52.614;13.496;2023-08-21T01:02:06;101525.78;;;23.28;57.28
26697;BME280;14312;52.614;13.496;2023-08-21T01:04:52;101523.34;;;23.27;57.25
26697;BME280;14312;52.614;13.496;2023-08-21T01:07:45;101528.78;;;23.27;58.03
26697;BME280;14312;52.614;13.496;2023-08-21T01:10:56;101520.13;;;23.25;58.39
26697;BME280;14312;52.614;13.496;2023-08-21T01:14:13;101523.94;;;23.24;58.44
26697;BME280;14312;52.614;13.496;2023-08-21T01:17:03;101521.34;;;23.19;57.53
26697;BME280;14312;52.614;13.496;2023-08-21T01:19:51;101515.91;;;23.19;57.55
26697;BME280;14312;52.614;13.496;2023-08-21T01:22:40;101522.44;;;23.18;57.76
26697;BME280;14312;52.614;13.496;2023-08-21T01:25:26;101518.09;;;23.17;57.67
26697;BME280;14312;52.614;13.496;2023-08-21T01:28:12;101513.00;;;23.15;58.09
26697;BME280;14312;52.614;13.496;2023-08-21T01:34:01;101517.00;;;23.18;58.90
26697;BME280;14312;52.614;13.496;2023-08-21T01:36:50;101518.91;;;23.17;58.31
26697;BME280;14312;52.614;13.496;2023-08-21T01:39:36;101510.47;;;23.19;58.49
26697;BME280;14312;52.614;13.496;2023-08-21T01:42:22;101508.25;;;23.21;58.46
26697;BME280;14312;52.614;13.496;2023-08-21T01:45:08;101511.47;;;23.23;58.76
26697;BME280;14312;52.614;13.496;2023-08-21T01:47:54;101503.00;;;23.24;58.55
26697;BME280;14312;52.614;13.496;2023-08-21T01:50:40;101496.16;;;23.27;58.72
26697;BME280;14312;52.614;13.496;2023-08-21T01:53:26;101503.19;;;23.28;58.81
26697;BME280;14312;52.614;13.496;2023-08-21T01:56:12;101502.56;;;23.31;58.93
26697;BME280;14312;52.614;13.496;2023-08-21T01:58:58;101497.66;;;23.33;59.27
26697;BME280;14312;52.614;13.496;2023-08-21T02:01:44;101492.09;;;23.38;59.29
26697;BME280;14312;52.614;13.496;2023-08-21T02:04:30;101480.31;;;23.42;59.54
26697;BME280;14312;52.614;13.496;2023-08-21T02:07:16;101481.03;;;23.48;59.73
26697;BME280;14312;52.614;13.496;2023-08-21T02:10:02;101488.28;;;23.53;59.38
26697;BME280;14312;52.614;13.496;2023-08-21T02:12:49;101492.50;;;23.59;59.21
26697;BME280;14312;52.614;13.496;2023-08-21T02:15:35;101488.66;;;23.60;59.44
26697;BME280;14312;52.614;13.496;2023-08-21T02:18:21;101483.41;;;23.63;59.74
26697;BME280;14312;52.614;13.496;2023-08-21T02:21:07;101496.72;;;23.65;59.55
26697;BME280;14312;52.614;13.496;2023-08-21T02:23:52;101495.28;;;23.67;59.82
26697;BME280;14312;52.614;13.496;2023-08-21T02:26:38;101484.59;;;23.71;59.72
26697;BME280;14312;52.614;13.496;2023-08-21T02:29:24;101488.63;;;23.73;59.83
26697;BME280;14312;52.614;13.496;2023-08-21T02:32:08;101486.41;;;23.75;60.07
26697;BME280;14312;52.614;13.496;2023-08-21T02:34:54;101487.22;;;23.76;59.94
26697;BME280;14312;52.614;13.496;2023-08-21T02:37:40;101485.81;;;23.78;59.87
26697;BME280;14312;52.614;13.496;2023-08-21T02:40:26;101485.16;;;23.81;60.13
26697;BME280;14312;52.614;13.496;2023-08-21T02:43:12;101485.97;;;23.82;60.05
26697;BME280;14312;52.614;13.496;2023-08-21T02:45:58;101495.75;;;23.83;59.98
26697;BME280;14312;52.614;13.496;2023-08-21T02:48:44;101492.22;;;23.83;60.07
26697;BME280;14312;52.614;13.496;2023-08-21T02:51:30;101492.22;;;23.83;60.00
26697;BME280;14312;52.614;13.496;2023-08-21T02:54:16;101488.41;;;23.84;60.14
26697;BME280;14312;52.614;13.496;2023-08-21T02:57:02;101500.09;;;23.84;60.32
26697;BME280;14312;52.614;13.496;2023-08-21T02:59:48;101495.44;;;23.85;60.26
26697;BME280;14312;52.614;13.496;2023-08-21T03:02:34;101501.41;;;23.87;60.05
26697;BME280;14312;52.614;13.496;2023-08-21T03:05:20;101495.97;;;23.87;60.34
26697;BME280;14312;52.614;13.496;2023-08-21T03:08:06;101494.34;;;23.86;60.27
26697;BME280;14312;52.614;13.496;2023-08-21T03:10:52;101491.78;;;23.89;60.61
26697;BME280;14312;52.614;13.496;2023-08-21T03:13:38;101491.50;;;23.91;60.37
26697;BME280;14312;52.614;13.496;2023-08-21T03:16:24;101489.59;;;23.91;60.47
26697;BME280;14312;52.614;13.496;2023-08-21T03:19:10;101495.84;;;23.92;60.46
26697;BME280;14312;52.614;13.496;2023-08-21T03:21:56;101484.94;;;23.92;60.44
26697;BME280;14312;52.614;13.496;2023-08-21T03:24:41;101488.97;;;23.94;60.80
26697;BME280;14312;52.614;13.496;2023-08-21T03:27:28;101484.31;;;23.95;60.40
26697;BME280;14312;52.614;13.496;2023-08-21T03:30:15;101478.84;;;23.95;60.73
26697;BME280;14312;52.614;13.496;2023-08-21T03:33:01;101475.84;;;23.96;60.53
26697;BME280;14312;52.614;13.496;2023-08-21T03:35:53;101477.16;;;23.99;61.70
26697;BME280;14312;52.614;13.496;2023-08-21T03:38:39;101473.91;;;23.97;60.46
26697;BME280;14312;52.614;13.496;2023-08-21T03:41:25;101472.81;;;23.98;60.51
26697;BME280;14312;52.614;13.496;2023-08-21T03:44:11;101480.97;;;23.98;60.73
26697;BME280;14312;52.614;13.496;2023-08-21T03:46:57;101479.06;;;23.98;60.79
26697;BME280;14312;52.614;13.496;2023-08-21T03:49:43;101480.47;;;23.96;60.68
26697;BME280;14312;52.614;13.496;2023-08-21T03:52:29;101482.09;;;23.97;60.59
26697;BME280;14312;52.614;13.496;2023-08-21T03:55:15;101487.03;;;23.95;61.02
26697;BME280;14312;52.614;13.496;2023-08-21T03:58:01;101494.72;;;23.93;60.59
26697;BME280;14312;52.614;13.496;2023-08-21T04:00:47;101495.84;;;23.92;61.11
26697;BME280;14312;52.614;13.496;2023-08-21T04:03:33;101494.22;;;23.91;60.93
26697;BME280;14312;52.614;13.496;2023-08-21T04:06:20;101485.53;;;23.89;61.09
26697;BME280;14312;52.614;13.496;2023-08-21T04:09:06;101499.50;;;23.87;60.96
26697;BME280;14312;52.614;13.496;2023-08-21T04:11:52;101495.97;;;23.87;61.17
26697;BME280;14312;52.614;13.496;2023-08-21T04:14:38;101497.06;;;23.86;61.19
26697;BME280;14312;52.614;13.496;2023-08-21T04:17:24;101502.50;;;23.86;61.32
26697;BME280;14312;52.614;13.496;2023-08-21T04:20:10;101502.50;;;23.86;61.20
26697;BME280;14312;52.614;13.496;2023-08-21T04:22:56;101510.97;;;23.84;61.04
26697;BME280;14312;52.614;13.496;2023-08-21T04:25:42;101506.34;;;23.85;61.50
26697;BME280;14312;52.614;13.496;2023-08-21T04:28:32;101513.41;;;23.86;61.88
26697;BME280;14312;52.614;13.496;2023-08-21T04:31:19;101508.25;;;23.84;61.39
26697;BME280;14312;52.614;13.496;2023-08-21T04:34:04;101514.00;;;23.83;61.29
26697;BME280;14312;52.614;13.496;2023-08-21T04:36:50;101514.00;;;23.83;61.63
26697;BME280;14312;52.614;13.496;2023-08-21T04:39:37;101514.81;;;23.83;61.62
26697;BME280;14312;52.614;13.496;2023-08-21T04:42:23;101515.63;;;23.84;61.85
26697;BME280;14312;52.614;13.496;2023-08-21T04:45:09;101512.59;;;23.85;61.60
26697;BME280;14312;52.614;13.496;2023-08-21T04:47:55;101522.03;;;23.88;61.75
26697;BME280;14312;52.614;13.496;2023-08-21T04:50:42;101514.38;;;23.90;61.71
26697;BME280;14312;52.614;13.496;2023-08-21T04:53:28;101518.41;;;23.92;61.77
26697;BME280;14312;52.614;13.496;2023-08-21T04:56:15;101525.16;;;23.95;61.88
26697;BME280;14312;52.614;13.496;2023-08-21T04:59:01;101534.34;;;23.99;62.03
26697;BME280;14312;52.614;13.496;2023-08-21T05:01:48;101540.75;;;24.03;61.96
26697;BME280;14312;52.614;13.496;2023-08-21T05:04:36;101539.53;;;24.09;62.07
26697;BME280;14312;52.614;13.496;2023-08-21T05:07:22;101549.22;;;24.15;61.96
26697;BME280;14312;52.614;13.496;2023-08-21T05:10:08;101545.28;;;24.21;62.32
26697;BME280;14312;52.614;13.496;2023-08-21T05:12:56;101551.56;;;24.30;62.31
26697;BME280;14312;52.614;13.496;2023-08-21T05:15:42;101550.38;;;24.36;62.11
26697;BME280;14312;52.614;13.496;2023-08-21T05:18:28;101547.50;;;24.41;61.72
26697;BME280;14312;52.614;13.496;2023-08-21T05:21:14;101554.75;;;24.46;62.00
26697;BME280;14312;52.614;13.496;2023-08-21T05:24:00;101549.47;;;24.49;61.65
26697;BME280;14312;52.614;13.496;2023-08-21T05:26:46;101539.56;;;24.53;61.52
26697;BME280;14312;52.614;13.496;2023-08-21T05:29:32;101541.38;;;24.58;61.74
26697;BME280;14312;52.614;13.496;2023-08-21T05:32:18;101551.03;;;24.64;61.63
26697;BME280;14312;52.614;13.496;2023-08-21T05:35:04;101541.28;;;24.72;61.74
26697;BME280;14312;52.614;13.496;2023-08-21T05:37:50;101532.97;;;24.77;61.09
26697;BME280;14312;52.614;13.496;2023-08-21T05:40:36;101541.00;;;24.82;61.14
26697;BME280;14312;52.614;13.496;2023-08-21T05:43:22;101543.56;;;24.87;61.06
26697;BME280;14312;52.614;13.496;2023-08-21T05:46:08;101543.97;;;24.94;61.39
26697;BME280;14312;52.614;13.496;2023-08-21T05:48:54;101545.94;;;25.02;61.28
26697;BME280;14312;52.614;13.496;2023-08-21T05:51:40;101540.81;;;25.09;61.36
26697;BME280;14312;52.614;13.496;2023-08-21T05:54:26;101545.00;;;25.15;61.15
26697;BME280;14312;52.614;13.496;2023-08-21T05:57:12;101554.03;;;25.24;61.21
26697;BME280;14312;52.614;13.496;2023-08-21T05:59:58;101557.44;;;25.30;61.01
26697;BME280;14312;52.614;13.496;2023-08-21T06:02:44;101556.97;;;25.36;60.63
26697;BME280;14312;52.614;13.496;2023-08-21T06:05:30;101553.00;;;25.43;60.90
26697;BME280;14312;52.614;13.496;2023-08-21T06:08:16;101559.91;;;25.49;60.80
26697;BME280;14312;52.614;13.496;2023-08-21T06:11:03;101554.78;;;25.56;60.47
26697;BME280;14312;52.614;13.496;2023-08-21T06:13:49;101555.16;;;25.63;60.63
26697;BME280;14312;52.614;13.496;2023-08-21T06:16:35;101563.19;;;25.68;60.56
26697;BME280;14312;52.614;13.496;2023-08-21T06:19:21;101558.69;;;25.72;60.29
26697;BME280;14312;52.614;13.496;2023-08-21T06:22:07;101568.97;;;25.75;60.45
26697;BME280;14312;52.614;13.496;2023-08-21T06:24:53;101568.81;;;25.80;60.31
26697;BME280;14312;52.614;13.496;2023-08-21T06:27:39;101565.44;;;25.83;60.25
26697;BME280;14312;52.614;13.496;2023-08-21T06:30:28;101569.63;;;25.89;60.08
26697;BME280;14312;52.614;13.496;2023-08-21T06:33:14;101567.41;;;25.91;60.20
26697;BME280;14312;52.614;13.496;2023-08-21T06:36:01;101567.88;;;25.93;60.18
26697;BME280;14312;52.614;13.496;2023-08-21T06:38:47;101565.94;;;25.94;59.84
26697;BME280;14312;52.614;13.496;2023-08-21T06:41:33;101580.41;;;25.94;59.78
26697;BME280;14312;52.614;13.496;2023-08-21T06:44:20;101577.03;;;25.97;59.95
26697;BME280;14312;52.614;13.496;2023-08-21T06:47:06;101575.91;;;25.98;59.69
26697;BME280;14312;52.614;13.496;2023-08-21T06:49:52;101581.53;;;26.02;59.73
26697;BME280;14312;52.614;13.496;2023-08-21T06:52:38;101575.75;;;26.03;60.11
26697;BME280;14312;52.614;13.496;2023-08-21T06:55:24;101584.94;;;26.07;60.03
26697;BME280;14312;52.614;13.496;2023-08-21T06:58:10;101577.69;;;26.11;60.14
26697;BME280;14312;52.614;13.496;2023-08-21T07:00:56;101585.09;;;26.20;60.16
26697;BME280;14312;52.614;13.496;2023-08-21T07:03:42;101579.97;;;26.27;60.10
26697;BME280;14312;52.614;13.496;2023-08-21T07:06:30;101583.50;;;26.36;60.29
26697;BME280;14312;52.614;13.496;2023-08-21T07:09:16;101576.41;;;26.43;60.11
26697;BME280;14312;52.614;13.496;2023-08-21T07:12:00;101574.78;;;26.51;60.01
26697;BME280;14312;52.614;13.496;2023-08-21T07:14:47;101572.84;;;26.60;59.81
26697;BME280;14312;52.614;13.496;2023-08-21T07:17:33;101569.28;;;26.68;59.85
26697;BME280;14312;52.614;13.496;2023-08-21T07:20:19;101565.88;;;26.80;60.03
26697;BME280;14312;52.614;13.496;2023-08-21T07:23:05;101566.66;;;26.89;59.70
26697;BME280;14312;52.614;13.496;2023-08-21T07:25:51;101580.81;;;27.00;59.71
26697;BME280;14312;52.614;13.496;2023-08-21T07:28:37;101568.56;;;27.06;59.28
26697;BME280;14312;52.614;13.496;2023-08-21T07:31:24;101572.03;;;27.15;59.16
26697;BME280;14312;52.614;13.496;2023-08-21T07:34:10;101579.28;;;27.19;58.83
26697;BME280;14312;52.614;13.496;2023-08-21T07:36:56;101597.44;;;27.24;58.92
26697;BME280;14312;52.614;13.496;2023-08-21T07:39:42;101586.66;;;27.27;58.85
26697;BME280;14312;52.614;13.496;2023-08-21T07:42:28;101587.91;;;27.30;58.86
26697;BME280;14312;52.614;13.496;2023-08-21T07:45:14;101589.34;;;27.36;58.79
26697;BME280;14312;52.614;13.496;2023-08-21T07:48:00;101586.44;;;27.41;58.23
26697;BME280;14312;52.614;13.496;2023-08-21T07:50:52;101591.06;;;27.49;57.89
26697;BME280;14312;52.614;13.496;2023-08-21T07:53:41;101597.19;;;27.55;57.84
26697;BME280;14312;52.614;13.496;2023-08-21T07:56:27;101601.31;;;27.61;57.85
26697;BME280;14312;52.614;13.496;2023-08-21T07:59:13;101594.69;;;27.71;57.59
26697;BME280;14312;52.614;13.496;2023-08-21T08:01:59;101599.75;;;27.81;57.41
26697;BME280;14312;52.614;13.496;2023-08-21T08:04:46;101593.88;;;27.91;57.17
26697;BME280;14312;52.614;13.496;2023-08-21T08:07:32;101595.56;;;28.04;56.91
26697;BME280;14312;52.614;13.496;2023-08-21T08:10:18;101590.16;;;28.16;56.63
26697;BME280;14312;52.614;13.496;2023-08-21T08:13:05;101591.81;;;28.29;56.30
26697;BME280;14312;52.614;13.496;2023-08-21T08:15:51;101593.34;;;28.39;55.83
26697;BME280;14312;52.614;13.496;2023-08-21T08:18:37;101590.53;;;28.48;55.59
26697;BME280;14312;52.614;13.496;2023-08-21T08:21:23;101592.41;;;28.56;55.50
26697;BME280;14312;52.614;13.496;2023-08-21T08:24:09;101593.44;;;28.63;54.76
26697;BME280;14312;52.614;13.496;2023-08-21T08:26:55;101592.75;;;28.66;54.13
26697;BME280;14312;52.614;13.496;2023-08-21T08:29:41;101594.47;;;28.71;53.86
26697;BME280;14312;52.614;13.496;2023-08-21T08:32:27;101590.44;;;28.77;53.34
26697;BME280;14312;52.614;13.496;2023-08-21T08:35:13;101591.81;;;28.83;53.42
26697;BME280;14312;52.614;13.496;2023-08-21T08:38:00;101592.72;;;28.87;52.92
26697;BME280;14312;52.614;13.496;2023-08-21T08:40:47;101591.34;;;28.93;52.76
26697;BME280;14312;52.614;13.496;2023-08-21T08:43:34;101594.69;;;28.99;52.59
26697;BME280;14312;52.614;13.496;2023-08-21T08:46:23;101601.22;;;29.06;52.47
26697;BME280;14312;52.614;13.496;2023-08-21T08:49:12;101598.94;;;29.20;51.64
26697;BME280;14312;52.614;13.496;2023-08-21T08:51:59;101592.13;;;29.39;50.91
26697;BME280;14312;52.614;13.496;2023-08-21T08:54:45;101599.44;;;29.59;50.76
26697;BME280;14312;52.614;13.496;2023-08-21T08:57:32;101601.94;;;29.76;49.24
26697;BME280;14312;52.614;13.496;2023-08-21T09:00:20;101593.19;;;29.86;48.16
26697;BME280;14312;52.614;13.496;2023-08-21T09:03:06;101591.38;;;29.90;47.62
26697;BME280;14312;52.614;13.496;2023-08-21T09:05:52;101597.09;;;29.98;48.68
26697;BME280;14312;52.614;13.496;2023-08-21T09:08:49;101596.81;;;30.15;47.96
26697;BME280;14312;52.614;13.496;2023-08-21T09:11:46;101585.72;;;30.39;46.45
26697;BME280;14312;52.614;13.496;2023-08-21T09:14:33;101591.38;;;30.58;46.45
26697;BME280;14312;52.614;13.496;2023-08-21T09:17:19;101589.88;;;30.77;45.53
26697;BME280;14312;52.614;13.496;2023-08-21T09:20:06;101583.19;;;30.90;45.24
26697;BME280;14312;52.614;13.496;2023-08-21T09:22:54;101573.91;;;30.98;44.67
26697;BME280;14312;52.614;13.496;2023-08-21T09:25:47;101580.09;;;31.07;43.44
26697;BME280;14312;52.614;13.496;2023-08-21T09:28:34;101582.22;;;31.13;44.32
26697;BME280;14312;52.614;13.496;2023-08-21T09:31:24;101582.47;;;31.24;43.69
26697;BME280;14312;52.614;13.496;2023-08-21T09:34:15;101580.34;;;31.33;44.69
26697;BME280;14312;52.614;13.496;2023-08-21T09:37:04;101576.03;;;31.51;43.79
26697;BME280;14312;52.614;13.496;2023-08-21T09:39:51;101571.72;;;31.70;43.96
26697;BME280;14312;52.614;13.496;2023-08-21T09:42:39;101578.44;;;31.88;43.20
26697;BME280;14312;52.614;13.496;2023-08-21T09:45:26;101572.78;;;32.00;43.13
26697;BME280;14312;52.614;13.496;2023-08-21T09:48:14;101580.50;;;32.10;42.71
26697;BME280;14312;52.614;13.496;2023-08-21T09:51:00;101580.66;;;32.17;42.81
26697;BME280;14312;52.614;13.496;2023-08-21T09:53:50;101578.06;;;32.24;42.57
26697;BME280;14312;52.614;13.496;2023-08-21T09:56:37;101575.72;;;32.26;41.86
26697;BME280;14312;52.614;13.496;2023-08-21T09:59:23;101568.19;;;32.23;41.99
26697;BME280;14312;52.614;13.496;2023-08-21T10:02:10;101569.63;;;32.17;41.32
26697;BME280;14312;52.614;13.496;2023-08-21T10:04:57;101571.78;;;32.08;41.64
26697;BME280;14312;52.614;13.496;2023-08-21T10:07:47;101571.63;;;32.01;41.22
26697;BME280;14312;52.614;13.496;2023-08-21T10:10:36;101567.88;;;31.90;41.00
26697;BME280;14312;52.614;13.496;2023-08-21T10:13:22;101567.72;;;31.83;41.17
26697;BME280;14312;52.614;13.496;2023-08-21T10:16:08;101570.09;;;31.84;42.04
26697;BME280;14312;52.614;13.496;2023-08-21T10:19:03;101568.44;;;31.99;41.96
26697;BME280;14312;52.614;13.496;2023-08-21T10:21:55;101564.97;;;32.21;40.91
26697;BME280;14312;52.614;13.496;2023-08-21T10:24:41;101568.50;;;32.41;41.41
26697;BME280;14312;52.614;13.496;2023-08-21T10:27:30;101565.66;;;32.57;39.95
26697;BME280;14312;52.614;13.496;2023-08-21T10:30:23;101572.91;;;32.65;39.74
26697;BME280;14312;52.614;13.496;2023-08-21T10:33:09;101573.69;;;32.65;39.70
26697;BME280;14312;52.614;13.496;2023-08-21T10:35:55;101568.91;;;32.62;39.09
26697;BME280;14312;52.614;13.496;2023-08-21T10:38:58;101579.00;;;32.55;37.76
26697;BME280;14312;52.614;13.496;2023-08-21T10:42:00;101566.84;;;32.37;38.49
26697;BME280;14312;52.614;13.496;2023-08-21T10:44:48;101571.22;;;32.18;38.86
26697;BME280;14312;52.614;13.496;2023-08-21T10:47:34;101574.09;;;32.06;39.81
26697;BME280;14312;52.614;13.496;2023-08-21T10:50:21;101574.09;;;32.06;39.82
26697;BME280;14312;52.614;13.496;2023-08-21T10:53:08;101577.47;;;32.15;39.51
26697;BME280;14312;52.614;13.496;2023-08-21T10:55:54;101569.03;;;32.27;39.91
26697;BME280;14312;52.614;13.496;2023-08-21T10:58:44;101574.81;;;32.42;38.54
26697;BME280;14312;52.614;13.496;2023-08-21T11:01:44;101575.31;;;32.47;38.04
26697;BME280;14312;52.614;13.496;2023-08-21T11:04:39;101573.34;;;32.48;38.08
26697;BME280;14312;52.614;13.496;2023-08-21T11:07:27;101568.88;;;32.40;38.40
26697;BME280;14312;52.614;13.496;2023-08-21T11:10:18;101578.75;;;32.41;38.15
26697;BME280;14312;52.614;13.496;2023-08-21T11:13:06;101570.41;;;32.37;38.17
26697;BME280;14312;52.614;13.496;2023-08-21T11:16:02;101592.34;;;32.30;38.07
26697;BME280;14312;52.614;13.496;2023-08-21T11:18:49;101579.75;;;32.13;37.47
26697;BME280;14312;52.614;13.496;2023-08-21T11:21:35;101593.59;;;31.98;37.51
26697;BME280;14312;52.614;13.496;2023-08-21T11:24:21;101585.78;;;31.80;38.15
26697;BME280;14312;52.614;13.496;2023-08-21T11:27:13;101583.50;;;31.67;37.99
26697;BME280;14312;52.614;13.496;2023-08-21T11:30:00;101579.25;;;31.54;38.10
26697;BME280;14312;52.614;13.496;2023-08-21T11:32:46;101572.84;;;31.49;39.05
26697;BME280;14312;52.614;13.496;2023-08-21T11:35:32;101573.00;;;31.57;38.96
26697;BME280;14312;52.614;13.496;2023-08-21T11:38:20;101572.63;;;31.74;39.08
26697;BME280;14312;52.614;13.496;2023-08-21T11:41:06;101575.41;;;31.93;37.87
26697;BME280;14312;52.614;13.496;2023-08-21T11:43:53;101571.34;;;32.06;37.96
26697;BME280;14312;52.614;13.496;2023-08-21T11:46:39;101569.47;;;32.10;37.04
26697;BME280;14312;52.614;13.496;2023-08-21T11:49:24;101570.19;;;32.07;37.17
26697;BME280;14312;52.614;13.496;2023-08-21T11:52:11;101573.22;;;32.02;37.21
26697;BME280;14312;52.614;13.496;2023-08-21T11:54:57;101573.53;;;31.97;37.35
26697;BME280;14312;52.614;13.496;2023-08-21T11:57:48;101569.88;;;31.93;37.16
26697;BME280;14312;52.614;13.496;2023-08-21T12:00:34;101570.03;;;31.81;37.68
26697;BME280;14312;52.614;13.496;2023-08-21T12:03:20;101574.22;;;31.75;37.85
26697;BME280;14312;52.614;13.496;2023-08-21T12:06:10;101568.28;;;31.73;37.50
26697;BME280;14312;52.614;13.496;2023-08-21T12:08:56;101572.03;;;31.65;37.34
26697;BME280;14312;52.614;13.496;2023-08-21T12:11:42;101573.13;;;31.60;37.57
26697;BME280;14312;52.614;13.496;2023-08-21T12:14:28;101572.19;;;31.56;38.00
26697;BME280;14312;52.614;13.496;2023-08-21T12:17:15;101566.63;;;31.52;37.97
26697;BME280;14312;52.614;13.496;2023-08-21T12:20:00;101573.72;;;31.54;37.99
26697;BME280;14312;52.614;13.496;2023-08-21T12:22:46;101571.38;;;31.56;38.13
26697;BME280;14312;52.614;13.496;2023-08-21T12:25:32;101560.38;;;31.56;38.40
26697;BME280;14312;52.614;13.496;2023-08-21T12:28:18;101558.97;;;31.62;37.96
26697;BME280;14312;52.614;13.496;2023-08-21T12:31:04;101554.03;;;31.71;38.40
26697;BME280;14312;52.614;13.496;2023-08-21T12:33:50;101562.75;;;31.92;38.37
26697;BME280;14312;52.614;13.496;2023-08-21T12:36:36;101560.03;;;32.11;38.14
26697;BME280;14312;52.614;13.496;2023-08-21T12:39:22;101558.00;;;32.27;37.90
26697;BME280;14312;52.614;13.496;2023-08-21T12:42:08;101557.72;;;32.33;37.32
26697;BME280;14312;52.614;13.496;2023-08-21T12:44:54;101556.13;;;32.32;37.57
26697;BME280;14312;52.614;13.496;2023-08-21T12:47:40;101554.81;;;32.25;37.14
26697;BME280;14312;52.614;13.496;2023-08-21T12:50:26;101557.78;;;32.17;37.39
26697;BME280;14312;52.614;13.496;2023-08-21T12:53:12;101558.34;;;32.07;36.92
26697;BME280;14312;52.614;13.496;2023-08-21T12:55:58;101562.06;;;31.95;36.90
26697;BME280;14312;52.614;13.496;2023-08-21T12:58:45;101561.75;;;31.81;36.78
26697;BME280;14312;52.614;13.496;2023-08-21T13:01:31;101557.25;;;31.73;36.30
26697;BME280;14312;52.614;13.496;2023-08-21T13:04:19;101559.91;;;31.69;36.92
26697;BME280;14312;52.614;13.496;2023-08-21T13:07:05;101549.78;;;31.73;36.71
26697;BME280;14312;52.614;13.496;2023-08-21T13:09:51;101552.19;;;31.94;36.57
26697;BME280;14312;52.614;13.496;2023-08-21T13:12:37;101563.38;;;32.20;36.32
26697;BME280;14312;52.614;13.496;2023-08-21T13:15:23;101560.44;;;32.52;35.69
26697;BME280;14312;52.614;13.496;2023-08-21T13:18:09;101561.81;;;32.84;35.31
26697;BME280;14312;52.614;13.496;2023-08-21T13:20:55;101557.91;;;33.12;34.75
26697;BME280;14312;52.614;13.496;2023-08-21T13:23:41;101558.16;;;33.26;34.48
26697;BME280;14312;52.614;13.496;2023-08-21T13:26:27;101559.03;;;33.30;34.04
26697;BME280;14312;52.614;13.496;2023-08-21T13:29:15;101549.50;;;33.27;33.61
26697;BME280;14312;52.614;13.496;2023-08-21T13:32:01;101543.81;;;33.17;33.81
26697;BME280;14312;52.614;13.496;2023-08-21T13:34:47;101542.47;;;33.07;34.13
26697;BME280;14312;52.614;13.496;2023-08-21T13:37:33;101534.13;;;33.03;34.27
26697;BME280;14312;52.614;13.496;2023-08-21T13:40:18;101537.25;;;33.02;34.14
26697;BME280;14312;52.614;13.496;2023-08-21T13:43:04;101540.50;;;33.08;34.42
26697;BME280;14312;52.614;13.496;2023-08-21T13:45:50;101540.03;;;33.25;34.06
26697;BME280;14312;52.614;13.496;2023-08-21T13:48:36;101531.59;;;33.44;34.16
26697;BME280;14312;52.614;13.496;2023-08-21T13:51:23;101531.88;;;33.65;33.87
26697;BME280;14312;52.614;13.496;2023-08-21T13:54:09;101519.53;;;33.86;33.57
26697;BME280;14312;52.614;13.496;2023-08-21T13:56:55;101516.56;;;34.05;33.89
26697;BME280;14312;52.614;13.496;2023-08-21T13:59:40;101518.06;;;34.32;33.56
26697;BME280;14312;52.614;13.496;2023-08-21T14:02:26;101514.06;;;34.67;33.05
26697;BME280;14312;52.614;13.496;2023-08-21T14:05:12;101508.81;;;34.99;32.93
26697;BME280;14312;52.614;13.496;2023-08-21T14:07:59;101516.94;;;35.28;32.58
26697;BME280;14312;52.614;13.496;2023-08-21T14:10:45;101510.34;;;35.51;32.33
26697;BME280;14312;52.614;13.496;2023-08-21T14:13:31;101520.31;;;35.69;31.87
26697;BME280;14312;52.614;13.496;2023-08-21T14:16:17;101510.88;;;35.78;31.49
26697;BME280;14312;52.614;13.496;2023-08-21T14:19:03;101511.66;;;35.71;30.76
26697;BME280;14312;52.614;13.496;2023-08-21T14:21:49;101505.97;;;35.53;31.52
26697;BME280;14312;52.614;13.496;2023-08-21T14:24:35;101505.91;;;35.36;31.08